Nearby METAR Reports

 

KBMG - Bloomington, Indiana, USA
Distance from station: SSE 11mi, 18km
Updated: Wed, 16-Aug-2017 8:53am EDT
Clear
Clear
 Wind from SSE
Wind: SSE 5 mph , 7 km/h
Temperature: 73°F , 23°C
Dew Point: 70°F , 21°C
Humidity: 89%
Barometer: 30.03 inHg , 1016.9 hPa
Clouds: Clear
Visibility: 10 miles , 16 km
2017/08/16 12:53 KBMG 161253Z 16004KT 10SM CLR 23/21 A3003 RMK AO2 SLP160 T02330206
KHUF - Terre Haute, Indiana, USA
Distance from station: WNW 34mi, 54km
Updated: Wed, 16-Aug-2017 8:53am EDT
Patches of fog, Partly cloudy
Patches of fog, Partly cloudy
 Wind from calm
Wind: Calm
Temperature: 72°F , 22°C
Dew Point: 70°F , 21°C
Humidity: 94%
Barometer: 30.02 inHg , 1016.6 hPa
Summary: Patches of Fog
Clouds: Partly cloudy
Visibility: 5 miles , 8 km
Cloud details: Partly cloudy 3200 ft
2017/08/16 12:53 KHUF 161253Z 00000KT 5SM BCFG SCT032 22/21 A3002 RMK AO2 SLP161 T02220206
 
KIND - Indianapolis, Indiana, USA
Distance from station: NE 36mi, 58km
Updated: Wed, 16-Aug-2017 8:54am EDT
Few Clouds
Few Clouds
 Wind from calm
Wind: Calm
Temperature: 75°F , 24°C
Dew Point: 70°F , 21°C
Humidity: 83%
Barometer: 30.02 inHg , 1016.6 hPa
Clouds: Few Clouds
Visibility: 10 miles , 16 km
Cloud details: Few Clouds 15000 ft
Few Clouds 30000 ft
2017/08/16 12:54 KIND 161254Z 00000KT 10SM FEW150 FEW300 24/21 A3002 RMK AO2 SLP160 T02440206
KBAK - Columbus/Balkala, Indiana, USA
Distance from station: E 43mi, 69km
Updated: Wed, 16-Aug-2017 8:45am EDT
Clear
Clear
 Wind from calm
Wind: Calm
Temperature: 70°F , 21°C
Dew Point: 68°F , 20°C
Humidity: 94%
Barometer: 30.03 inHg , 1016.9 hPa
Clouds: Clear
Visibility: 10 miles , 16 km
2017/08/16 12:45 KBAK 161245Z 00000KT 10SM SKC 21/20 A3003
 
KEYE - Indianapolis, Indiana, USA
Distance from station: NNE 43mi, 69km
Updated: Wed, 16-Aug-2017 8:53am EDT
Clear
Clear
 Wind from calm
Wind: Calm
Temperature: 75°F , 24°C
Dew Point: 68°F , 20°C
Humidity: 78%
Barometer: 30.03 inHg , 1016.9 hPa
Clouds: Clear
Visibility: 9 miles , 14 km
2017/08/16 12:53 KEYE 161253Z AUTO 00000KT 9SM CLR 24/20 A3003 RMK AO2 SLP160 T02440200
KDCY - Daviess County, Indiana, USA
Distance from station: SSW 47mi, 76km
Updated: Wed, 16-Aug-2017 8:55am EDT
Mist, Clear
Mist, Clear
 
Temperature: 72°F , 22°C
Dew Point: 70°F , 21°C
Humidity: 94%
Barometer: 30.00 inHg , 1015.9 hPa
Summary: Mist
Clouds: Clear
Visibility: 4 miles , 6 km
2017/08/16 12:55 KDCY 161255Z AUTO 4SM BR CLR 22/21 A3000 RMK AO2 T02200210
 
KGEZ - Shelbyville, Indiana, USA
Distance from station: ENE 52mi, 83km
Updated: Wed, 16-Aug-2017 8:53am EDT
Clear
Clear
 Wind from calm
Wind: Calm
Temperature: 75°F , 24°C
Dew Point: 70°F , 21°C
Humidity: 83%
Barometer: 30.03 inHg , 1016.9 hPa
Clouds: Clear
Visibility: 10 miles , 16 km
2017/08/16 12:53 KGEZ 161253Z AUTO 00000KT 10SM CLR 24/21 A3003 RMK AO2 SLP161 T02390206
KRSV - Robinson Muni, Illinois, USA
Distance from station: WSW 55mi, 88km
Updated: Wed, 16-Aug-2017 8:55am EDT
Mist, Partly cloudy
Mist, Partly cloudy
 Wind from calm
Wind: Calm
Temperature: 70°F , 21°C
Dew Point: 70°F , 21°C
Humidity: 100%
Barometer: 30.01 inHg , 1016.3 hPa
Summary: Mist
Clouds: Partly cloudy
Visibility: 4 miles , 6 km
Cloud details: Partly cloudy 3100 ft
2017/08/16 12:55 KRSV 161255Z AUTO 00000KT 4SM BR SCT031 21/21 A3001 RMK AO2 T02110211
 
KTYQ - Indianapolis Exc, Indiana, USA
Distance from station: NNE 56mi, 90km
Updated: Wed, 16-Aug-2017 8:55am EDT
Clear
Clear
 Wind from calm
Wind: Calm
Temperature: 73°F , 23°C
Dew Point: 70°F , 21°C
Humidity: 89%
Barometer: 30.05 inHg , 1017.6 hPa
Clouds: Clear
Visibility: 7 miles , 11 km
2017/08/16 12:55 KTYQ 161255Z AUTO 00000KT 7SM CLR 23/21 A3005 RMK AO2 T02250205
KMQJ - Indianapolis Reg, Indiana, USA
Distance from station: NE 57mi, 92km
Updated: Wed, 16-Aug-2017 8:49am EDT
Clear
Clear
 Wind from calm
Wind: Calm
Temperature: 70°F , 21°C
Dew Point: 68°F , 20°C
Humidity: 94%
Barometer: 30.04 inHg , 1017.3 hPa
Clouds: Clear
Visibility: 5 miles , 8 km
2017/08/16 12:49 KMQJ 161249Z AUTO 00000KT 5SM CLR 21/20 A3004 RMK AO1
 
KPRG - Paris, Illinois, USA
Distance from station: WNW 59mi, 94km
Updated: Wed, 16-Aug-2017 8:55am EDT
Mist, Clear
Mist, Clear
 Wind from calm
Wind: Calm
Temperature: 72°F , 22°C
Dew Point: 72°F , 22°C
Humidity: 100%
Barometer: 30.03 inHg , 1016.9 hPa
Summary: Mist
Clouds: Clear
Visibility: 5 miles , 8 km
2017/08/16 12:55 KPRG 161255Z AUTO 00000KT 5SM BR CLR 22/22 A3003 RMK AO2 T02230217
KLWV - Lawrenceville, Illinois, USA
Distance from station: SW 61mi, 98km
Updated: Wed, 16-Aug-2017 8:53am EDT
Mist, Clear
Mist, Clear
 Wind from E
Wind: E 5 mph , 7 km/h
Temperature: 73°F , 23°C
Dew Point: 72°F , 22°C
Humidity: 94%
Barometer: 30.00 inHg , 1015.9 hPa
Summary: Mist
Clouds: Clear
Visibility: 3 miles , 5 km
2017/08/16 12:53 KLWV 161253Z AUTO 08004KT 3SM BR CLR 23/22 A3000 RMK AO2 SLP153 T02280222
 
KAJG - Mount Carmel, Illinois, USA
Distance from station: SW 73mi, 117km
Updated: Wed, 16-Aug-2017 8:55am EDT
Mist, Clear
Mist, Clear
 Wind from ESE
Wind: ESE 5 mph , 7 km/h
Temperature: 73°F , 23°C
Dew Point: 72°F , 22°C
Humidity: 94%
Barometer: 29.99 inHg , 1015.6 hPa
Summary: Mist
Clouds: Clear
Visibility: 3 miles , 5 km
2017/08/16 12:55 KAJG 161255Z AUTO 11004KT 3SM BR CLR 23/22 A2999 RMK AO2 T02260216
KHNB - Huntingburg, Indiana, USA
Distance from station: S 74mi, 119km
Updated: Wed, 16-Aug-2017 8:56am EDT
Mostly cloudy
Mostly cloudy
 Wind from S
Wind: S 6 mph , 9 km/h
Temperature: 73°F , 23°C
Dew Point: 72°F , 22°C
Humidity: 94%
Barometer: 30.02 inHg , 1016.6 hPa
Clouds: Mostly cloudy
Visibility: 9 miles , 14 km
Cloud details: Mostly cloudy 500 ft
2017/08/16 12:56 KHNB 161256Z AUTO 17005KT 9SM BKN005 23/22 A3002 RMK AO2 SLP163 T02280217
 
KLAF - Lafayette, Indiana, USA
Distance from station: N 78mi, 126km
Updated: Wed, 16-Aug-2017 8:54am EDT
Clear
Clear
 Wind from calm
Wind: Calm
Temperature: 72°F , 22°C
Dew Point: 70°F , 21°C
Humidity: 94%
Barometer: 30.01 inHg , 1016.3 hPa
Clouds: Clear
Visibility: 7 miles , 11 km
2017/08/16 12:54 KLAF 161254Z 00000KT 7SM CLR 22/21 A3001 RMK AO2 SLP158 T02220211
KDNV - Danville, Illinois, USA
Distance from station: NW 79mi, 126km
Updated: Wed, 16-Aug-2017 8:55am EDT
Mist, Clear
Mist, Clear
 Wind from calm
Wind: Calm
Temperature: 72°F , 22°C
Dew Point: 72°F , 22°C
Humidity: 100%
Barometer: 30.00 inHg , 1015.9 hPa
Summary: Mist
Clouds: Clear
Visibility: 5 miles , 8 km
2017/08/16 12:55 KDNV 161255Z AUTO 00000KT 5SM BR CLR 22/22 A3000 RMK AO2 T02170216
 
KAID - Anderson Municip, Indiana, USA
Distance from station: NE 81mi, 130km
Updated: Wed, 16-Aug-2017 8:57am EDT

 
Visibility: 0 mile
2017/08/16 12:57 KAID 161257Z 00000KTS 7SM CLR 24/23 A3004
KMTO - Mattoon/Charlest, Illinois, USA
Distance from station: W 85mi, 136km
Updated: Wed, 16-Aug-2017 8:53am EDT
Clear
Clear
 Wind from SE
Wind: SE 5 mph , 7 km/h
Temperature: 73°F , 23°C
Dew Point: 72°F , 22°C
Humidity: 94%
Barometer: 29.99 inHg , 1015.6 hPa
Clouds: Clear
Visibility: 10 miles , 16 km
2017/08/16 12:53 KMTO 161253Z AUTO 13004KT 10SM CLR 23/22 A2999 RMK AO2 SLP150 T02280222
 
KOLY - Olney-Noble, Illinois, USA
Distance from station: WSW 89mi, 144km
Updated: Wed, 16-Aug-2017 8:55am EDT
Mist, Clear
Mist, Clear
 Wind from ESE
Wind: ESE 5 mph , 7 km/h
Temperature: 73°F , 23°C
Dew Point: 72°F , 22°C
Humidity: 94%
Barometer: 29.99 inHg , 1015.6 hPa
Summary: Mist
Clouds: Clear
Visibility: 5 miles , 8 km
2017/08/16 12:55 KOLY 161255Z AUTO 11004KT 5SM BR CLR 23/22 A2999 RMK AO2 T02310219
KOKK - Kokomo, Indiana, USA
Distance from station: NNE 92mi, 148km
Updated: Wed, 16-Aug-2017 8:56am EDT
Clear
Clear
 Wind from calm
Wind: Calm
Temperature: 72°F , 22°C
Dew Point: 70°F , 21°C
Humidity: 94%
Barometer: 30.05 inHg , 1017.6 hPa
Clouds: Clear
Visibility: 9 miles , 14 km
2017/08/16 12:56 KOKK 161256Z AUTO 00000KT 9SM CLR 22/21 A3005 RMK AO2 SLP170 T02220206 PNO $